createdAt,value
2022-09-15T00:01:31.222Z,98070.72
2022-09-15T00:04:32.989Z,98062.88
2022-09-15T00:07:35.098Z,98058.20
2022-09-15T00:11:18.874Z,98056.86
2022-09-15T00:14:36.394Z,98058.69
2022-09-15T00:17:53.657Z,98049.64
2022-09-15T00:20:57.734Z,98044.71
2022-09-15T00:24:01.550Z,98034.14
2022-09-15T00:27:04.044Z,98028.41
2022-09-15T00:30:07.753Z,98020.97
2022-09-15T00:33:10.271Z,98008.69
2022-09-15T00:36:12.742Z,97996.65
2022-09-15T00:39:34.645Z,97988.08
2022-09-15T00:42:36.340Z,97981.13
2022-09-15T00:45:38.484Z,97984.81
2022-09-15T00:48:46.103Z,97982.47
2022-09-15T00:51:58.141Z,97981.55
2022-09-15T00:55:05.984Z,97977.80
2022-09-15T00:58:10.817Z,97978.52
2022-09-15T01:01:13.777Z,97973.35
2022-09-15T01:04:16.549Z,97968.57
2022-09-15T01:07:22.120Z,97975.13
2022-09-15T01:10:29.550Z,97966.02
2022-09-15T01:13:31.420Z,97955.60
2022-09-15T01:20:46.707Z,97950.09
2022-09-15T01:24:00.457Z,97954.37
2022-09-15T01:27:42.182Z,97944.30
2022-09-15T01:30:56.196Z,97933.14
2022-09-15T01:34:08.443Z,97928.61
2022-09-15T01:37:13.738Z,97930.11
2022-09-15T01:40:16.074Z,97923.95
2022-09-15T01:43:19.617Z,97916.67
2022-09-15T01:46:23.605Z,97922.33
2022-09-15T01:49:27.606Z,97930.19
2022-09-15T01:52:29.989Z,97929.94
2022-09-15T01:56:03.042Z,97927.04
2022-09-15T01:59:05.545Z,97918.05
2022-09-15T02:02:30.679Z,97913.11
2022-09-15T02:05:40.119Z,97903.96
2022-09-15T02:08:47.746Z,97898.52
2022-09-15T02:11:58.104Z,97898.51
2022-09-15T02:15:04.491Z,97893.98
2022-09-15T02:18:08.721Z,97895.83
2022-09-15T02:21:24.183Z,97897.58
2022-09-15T02:24:30.458Z,97899.04
2022-09-15T02:27:37.900Z,97899.13
2022-09-15T02:30:42.055Z,97897.70
2022-09-15T02:33:49.131Z,97898.73
2022-09-15T02:36:53.185Z,97897.38
2022-09-15T02:39:58.146Z,97892.61
2022-09-15T02:43:05.596Z,97893.00
2022-09-15T02:46:07.431Z,97891.27
2022-09-15T02:49:09.473Z,97896.20
2022-09-15T02:52:11.483Z,97895.83
2022-09-15T02:55:13.402Z,97885.91
2022-09-15T02:58:15.072Z,97883.66
2022-09-15T03:01:17.143Z,97876.69
2022-09-15T03:04:19.722Z,97881.30
2022-09-15T03:07:21.719Z,97878.54
2022-09-15T03:10:25.372Z,97881.23
2022-09-15T03:13:27.114Z,97881.33
2022-09-15T03:16:31.538Z,97875.92
2022-09-15T03:19:33.343Z,97870.77
2022-09-15T03:22:35.784Z,97873.76
2022-09-15T03:25:37.717Z,97874.09
2022-09-15T03:28:39.708Z,97875.05
2022-09-15T03:31:41.699Z,97874.65
2022-09-15T03:34:43.840Z,97874.14
2022-09-15T03:37:45.999Z,97875.00
2022-09-15T03:40:58.663Z,97869.23
2022-09-15T03:44:00.375Z,97869.05
2022-09-15T03:47:03.586Z,97866.14
2022-09-15T03:50:06.832Z,97866.86
2022-09-15T03:53:08.489Z,97859.56
2022-09-15T03:56:23.313Z,97859.13
2022-09-15T03:59:25.043Z,97858.13
2022-09-15T04:02:27.109Z,97849.88
2022-09-15T04:05:29.097Z,97842.05
2022-09-15T04:08:30.837Z,97846.58
2022-09-15T04:11:32.764Z,97844.80
2022-09-15T04:14:34.685Z,97838.49
2022-09-15T04:17:36.433Z,97843.38
2022-09-15T04:20:41.573Z,97837.92
2022-09-15T04:23:44.392Z,97840.05
2022-09-15T04:26:46.220Z,97841.33
2022-09-15T04:29:51.297Z,97839.55
2022-09-15T04:32:54.084Z,97831.68
2022-09-15T04:36:25.732Z,97836.55
2022-09-15T04:39:27.426Z,97831.92
2022-09-15T04:42:29.232Z,97838.58
2022-09-15T04:45:31.986Z,97838.00
2022-09-15T04:48:33.789Z,97835.19
2022-09-15T04:51:35.592Z,97823.13
2022-09-15T04:54:37.332Z,97818.39
2022-09-15T04:57:38.938Z,97818.07
2022-09-15T05:00:43.641Z,97820.17
2022-09-15T05:03:46.614Z,97822.85
2022-09-15T05:06:48.669Z,97822.44
2022-09-15T05:09:50.375Z,97830.82
2022-09-15T05:12:52.118Z,97833.58
2022-09-15T05:15:53.880Z,97837.26
2022-09-15T05:18:59.815Z,97836.92
2022-09-15T05:22:01.448Z,97839.91
2022-09-15T05:25:03.747Z,97840.87
2022-09-15T05:28:06.078Z,97842.70
2022-09-15T05:31:12.852Z,97839.70
2022-09-15T05:34:15.430Z,97838.36
2022-09-15T05:37:17.173Z,97835.67
2022-09-15T05:40:21.971Z,97836.73
2022-09-15T05:43:23.738Z,97836.12
2022-09-15T05:46:26.418Z,97840.32
2022-09-15T05:49:29.544Z,97837.52
2022-09-15T05:52:31.448Z,97834.25
2022-09-15T05:55:38.011Z,97832.04
2022-09-15T05:58:41.657Z,97835.71
2022-09-15T06:01:43.418Z,97836.48
2022-09-15T06:04:45.132Z,97830.04
2022-09-15T06:07:46.822Z,97835.52
2022-09-15T06:10:48.608Z,97837.95
2022-09-15T06:13:50.995Z,97838.49
2022-09-15T06:16:52.644Z,97839.64
2022-09-15T06:19:55.047Z,97838.27
2022-09-15T06:22:57.127Z,97841.34
2022-09-15T06:26:13.319Z,97840.48
2022-09-15T06:29:15.048Z,97843.27
2022-09-15T06:32:16.761Z,97840.83
2022-09-15T06:35:18.651Z,97834.45
2022-09-15T06:38:20.434Z,97838.20
2022-09-15T06:41:22.332Z,97838.45
2022-09-15T06:44:24.033Z,97842.17
2022-09-15T06:47:25.874Z,97842.12
2022-09-15T06:50:27.542Z,97855.25
2022-09-15T06:53:34.204Z,97859.48
2022-09-15T06:56:38.359Z,97871.55
2022-09-15T06:59:40.326Z,97880.26
2022-09-15T07:02:44.487Z,97883.38
2022-09-15T07:05:46.413Z,97890.09
2022-09-15T07:08:49.911Z,97898.14
2022-09-15T07:11:51.593Z,97903.23
2022-09-15T07:14:53.383Z,97913.66
2022-09-15T07:17:55.020Z,97917.08
2022-09-15T07:21:01.899Z,97926.96
2022-09-15T07:24:07.306Z,97925.68
2022-09-15T07:27:10.565Z,97936.39
2022-09-15T07:30:13.837Z,97945.05
2022-09-15T07:33:15.709Z,97954.36
2022-09-15T07:36:17.610Z,97960.81
2022-09-15T07:39:19.346Z,97961.16
2022-09-15T07:42:21.053Z,97976.00
2022-09-15T07:45:23.405Z,97988.64
2022-09-15T07:48:26.544Z,97993.55
2022-09-15T07:51:28.756Z,97998.88
2022-09-15T07:54:30.393Z,98005.01
2022-09-15T07:57:32.108Z,98017.08
2022-09-15T08:00:34.894Z,98018.96
2022-09-15T08:03:39.763Z,98031.50
2022-09-15T08:06:41.449Z,98041.08
2022-09-15T08:09:43.046Z,98039.53
2022-09-15T08:12:44.765Z,98036.52
2022-09-15T08:15:47.420Z,98039.30
2022-09-15T08:18:49.875Z,98048.45
2022-09-15T08:21:51.494Z,98059.67
2022-09-15T08:24:53.374Z,98064.38
2022-09-15T08:27:56.426Z,98072.91
2022-09-15T08:31:03.312Z,98082.20
2022-09-15T08:34:07.020Z,98087.84
2022-09-15T08:37:08.646Z,98093.20
2022-09-15T08:40:16.932Z,98098.71
2022-09-15T08:43:23.644Z,98106.70
2022-09-15T08:47:00.821Z,98109.73
2022-09-15T08:50:10.313Z,98107.02
2022-09-15T08:53:47.584Z,98109.13
2022-09-15T08:56:50.155Z,98114.36
2022-09-15T08:59:52.447Z,98113.39
2022-09-15T09:03:28.448Z,98115.42
2022-09-15T09:06:48.736Z,98127.83
2022-09-15T09:10:03.511Z,98134.89
2022-09-15T09:13:35.202Z,98137.61
2022-09-15T09:16:52.504Z,98137.89
2022-09-15T09:20:36.251Z,98138.98
2022-09-15T09:24:10.294Z,98143.49
2022-09-15T09:27:18.398Z,98151.45
2022-09-15T09:30:22.729Z,98157.59
2022-09-15T09:33:31.620Z,98169.83
2022-09-15T09:36:34.290Z,98172.84
2022-09-15T09:39:36.316Z,98168.52
2022-09-15T09:42:38.167Z,98168.30
2022-09-15T09:45:39.883Z,98171.92
2022-09-15T09:48:50.181Z,98173.74
2022-09-15T09:51:59.341Z,98177.21
2022-09-15T09:55:04.336Z,98175.52
2022-09-15T09:58:15.735Z,98179.48
2022-09-15T10:01:19.786Z,98179.29
2022-09-15T10:04:23.043Z,98184.55
2022-09-15T10:07:26.401Z,98186.17
2022-09-15T10:10:32.508Z,98199.52
2022-09-15T10:13:36.299Z,98195.23
2022-09-15T10:16:38.124Z,98197.12
2022-09-15T10:19:42.669Z,98199.09
2022-09-15T10:22:44.537Z,98202.51
2022-09-15T10:26:01.838Z,98202.54
2022-09-15T10:29:19.143Z,98204.07
2022-09-15T10:32:26.006Z,98210.34
2022-09-15T10:35:32.719Z,98213.31
2022-09-15T10:38:40.513Z,98216.02
2022-09-15T10:42:25.403Z,98214.45
2022-09-15T10:45:33.886Z,98205.30
2022-09-15T10:48:58.015Z,98202.73
2022-09-15T10:52:24.797Z,98200.73
2022-09-15T10:55:51.673Z,98195.73
2022-09-15T10:59:18.982Z,98201.09
2022-09-15T11:02:51.896Z,98198.27
2022-09-15T11:06:11.298Z,98189.27
2022-09-15T11:09:23.312Z,98183.04
2022-09-15T11:12:46.366Z,98178.69
2022-09-15T11:15:56.878Z,98178.05
2022-09-15T11:19:01.653Z,98176.44
2022-09-15T11:22:07.763Z,98171.02
2022-09-15T11:25:17.504Z,98169.41
2022-09-15T11:28:29.111Z,98174.65
2022-09-15T11:31:39.687Z,98170.14
2022-09-15T11:34:47.297Z,98170.05
2022-09-15T11:37:50.743Z,98168.29
2022-09-15T11:40:57.361Z,98172.58
2022-09-15T11:44:19.241Z,98160.61
2022-09-15T11:47:31.885Z,98164.95
2022-09-15T11:50:37.089Z,98165.20
2022-09-15T11:54:07.668Z,98155.98
2022-09-15T11:57:19.034Z,98152.88
2022-09-15T12:00:20.870Z,98153.09
2022-09-15T12:03:39.367Z,98148.70
2022-09-15T12:06:49.536Z,98146.11
2022-09-15T12:09:51.711Z,98145.34
2022-09-15T12:12:54.119Z,98147.66
2022-09-15T12:15:56.271Z,98138.50
2022-09-15T12:19:16.735Z,98142.33
2022-09-15T12:22:31.079Z,98134.68
2022-09-15T12:25:41.191Z,98125.34
2022-09-15T12:28:57.440Z,98123.55
2022-09-15T12:32:29.483Z,98125.62
2022-09-15T12:35:33.309Z,98125.69
2022-09-15T12:38:34.992Z,98132.27
2022-09-15T12:41:36.848Z,98135.73
2022-09-15T12:45:01.029Z,98135.17
2022-09-15T12:48:06.458Z,98131.70
2022-09-15T12:51:12.803Z,98135.06
2022-09-15T12:54:23.365Z,98138.09
2022-09-15T12:57:32.805Z,98129.45
2022-09-15T13:00:50.039Z,98126.48
2022-09-15T13:04:02.395Z,98120.33
2022-09-15T13:07:34.837Z,98117.98
2022-09-15T13:10:39.660Z,98116.30
2022-09-15T13:14:04.351Z,98109.48
2022-09-15T13:17:13.800Z,98102.51
2022-09-15T13:20:22.807Z,98106.17
2022-09-15T13:23:25.963Z,98111.81
2022-09-15T13:26:29.673Z,98113.23
2022-09-15T13:29:33.128Z,98112.41
2022-09-15T13:32:46.629Z,98110.13
2022-09-15T13:36:23.826Z,98103.14
2022-09-15T13:39:53.315Z,98102.63
2022-09-15T13:43:22.954Z,98091.95
2022-09-15T13:46:50.212Z,98087.89
2022-09-15T13:50:17.412Z,98090.56
2022-09-15T13:53:42.800Z,98096.92
2022-09-15T13:56:46.898Z,98088.15
2022-09-15T13:59:50.595Z,98085.98
2022-09-15T14:02:58.171Z,98090.56
2022-09-15T14:06:00.014Z,98095.57
2022-09-15T14:09:06.325Z,98095.02
2022-09-15T14:12:11.374Z,98093.80
2022-09-15T14:15:16.765Z,98089.78
2022-09-15T14:18:20.005Z,98086.98
2022-09-15T14:21:26.050Z,98078.86
2022-09-15T14:24:30.652Z,98076.00
2022-09-15T14:27:34.565Z,98074.31
2022-09-15T14:30:36.428Z,98074.80
2022-09-15T14:33:40.130Z,98071.16
2022-09-15T14:36:42.284Z,98064.66
2022-09-15T14:39:58.216Z,98064.04
2022-09-15T14:43:00.029Z,98063.45
2022-09-15T14:46:19.283Z,98056.59
2022-09-15T14:49:21.955Z,98059.08
2022-09-15T14:52:29.305Z,98055.77
2022-09-15T14:55:55.819Z,98055.95
2022-09-15T14:59:26.799Z,98061.48
2022-09-15T15:02:46.998Z,98059.30
2022-09-15T15:06:02.690Z,98061.98
2022-09-15T15:09:25.571Z,98062.51
2022-09-15T15:12:31.017Z,98055.70
2022-09-15T15:15:33.772Z,98060.69
2022-09-15T15:18:35.495Z,98063.60
2022-09-15T15:21:44.624Z,98058.23
2022-09-15T15:24:49.100Z,98056.45
2022-09-15T15:27:52.664Z,98047.68
2022-09-15T15:31:06.142Z,98048.22
2022-09-15T15:34:23.465Z,98047.72
2022-09-15T15:37:32.701Z,98041.77
2022-09-15T15:40:36.778Z,98042.69
2022-09-15T15:43:38.542Z,98037.63
2022-09-15T15:46:53.104Z,98033.46
2022-09-15T15:50:16.126Z,98038.60
2022-09-15T15:53:17.954Z,98038.89
2022-09-15T15:56:23.606Z,98042.52
2022-09-15T15:59:25.249Z,98047.07
2022-09-15T16:02:27.697Z,98039.67
2022-09-15T16:05:29.789Z,98032.00
2022-09-15T16:08:38.290Z,98018.29
2022-09-15T16:11:41.356Z,98028.05
2022-09-15T16:14:43.121Z,98034.65
2022-09-15T16:17:46.827Z,98030.63
2022-09-15T16:20:49.008Z,98026.10
2022-09-15T16:23:51.148Z,98034.70
2022-09-15T16:26:53.881Z,98045.94
2022-09-15T16:29:55.774Z,98049.12
2022-09-15T16:32:57.674Z,98052.05
2022-09-15T16:36:06.891Z,98051.02
2022-09-15T16:39:08.772Z,98058.48
2022-09-15T16:42:10.771Z,98062.36
2022-09-15T16:45:41.692Z,98057.52
2022-09-15T16:48:43.893Z,98058.66
2022-09-15T16:51:45.703Z,98062.44
2022-09-15T16:54:47.359Z,98064.93
2022-09-15T16:57:49.715Z,98070.55
2022-09-15T17:00:52.909Z,98073.61
2022-09-15T17:03:55.956Z,98075.00
2022-09-15T17:06:57.604Z,98078.79
2022-09-15T17:09:59.205Z,98079.06
2022-09-15T17:13:01.709Z,98072.13
2022-09-15T17:16:04.223Z,98077.40
2022-09-15T17:19:05.920Z,98079.77
2022-09-15T17:22:08.665Z,98074.71
2022-09-15T17:25:18.568Z,98073.98
2022-09-15T17:28:22.778Z,98073.08
2022-09-15T17:31:25.185Z,98072.67
2022-09-15T17:34:26.921Z,98077.44
2022-09-15T17:37:28.642Z,98086.11
2022-09-15T17:40:31.014Z,98089.23
2022-09-15T17:43:32.833Z,98088.30
2022-09-15T17:46:34.663Z,98081.73
2022-09-15T17:49:36.342Z,98079.32
2022-09-15T17:52:38.130Z,98084.41
2022-09-15T17:55:39.888Z,98097.98
2022-09-15T17:58:42.679Z,98103.69
2022-09-15T18:01:44.634Z,98110.40
2022-09-15T18:04:46.670Z,98108.12
2022-09-15T18:07:48.698Z,98111.23
2022-09-15T18:10:51.092Z,98115.06
2022-09-15T18:13:52.832Z,98115.19
2022-09-15T18:16:54.526Z,98121.36
2022-09-15T18:19:56.237Z,98123.46
2022-09-15T18:22:59.047Z,98127.78
2022-09-15T18:26:00.741Z,98130.45
2022-09-15T18:29:02.457Z,98133.05
2022-09-15T18:32:04.426Z,98136.83
2022-09-15T18:35:09.155Z,98140.30
2022-09-15T18:38:11.650Z,98149.73
2022-09-15T18:41:13.310Z,98146.38
2022-09-15T18:44:15.282Z,98146.14
2022-09-15T18:47:17.049Z,98137.00
2022-09-15T18:50:22.119Z,98132.52
2022-09-15T18:53:23.904Z,98124.81
2022-09-15T18:56:25.517Z,98132.53
2022-09-15T18:59:27.294Z,98139.36
2022-09-15T19:02:29.163Z,98142.63
2022-09-15T19:05:31.293Z,98136.23
2022-09-15T19:08:36.971Z,98138.47
2022-09-15T19:11:39.257Z,98134.65
2022-09-15T19:14:44.591Z,98149.08
2022-09-15T19:17:48.340Z,98146.84
2022-09-15T19:20:50.023Z,98138.95
2022-09-15T19:23:52.144Z,98139.62
2022-09-15T19:26:53.787Z,98144.03
2022-09-15T19:29:55.495Z,98147.61
2022-09-15T19:32:57.185Z,98150.73
2022-09-15T19:36:26.916Z,98154.14
2022-09-15T19:39:25.159Z,98157.18
2022-09-15T19:42:26.807Z,98155.92
2022-09-15T19:45:28.810Z,98163.84
2022-09-15T19:48:31.609Z,98168.90
2022-09-15T19:51:34.885Z,98169.92
2022-09-15T19:54:36.537Z,98171.27
2022-09-15T19:57:41.871Z,98177.39
2022-09-15T20:00:44.103Z,98185.02
2022-09-15T20:07:05.931Z,98193.88
2022-09-15T20:10:07.820Z,98191.50
2022-09-15T20:13:09.633Z,98188.06
2022-09-15T20:16:16.626Z,98196.35
2022-09-15T20:19:18.555Z,98195.91
2022-09-15T20:22:20.410Z,98193.89
2022-09-15T20:25:24.157Z,98194.19
2022-09-15T20:28:26.489Z,98196.63
2022-09-15T20:31:29.258Z,98194.09
2022-09-15T20:34:31.035Z,98194.94
2022-09-15T20:37:37.239Z,98194.55
2022-09-15T20:40:39.630Z,98195.49
2022-09-15T20:43:42.579Z,98198.56
2022-09-15T20:46:44.423Z,98198.50
2022-09-15T20:49:46.796Z,98199.28
2022-09-15T20:52:49.307Z,98197.20
2022-09-15T20:55:51.164Z,98207.25
2022-09-15T20:58:54.103Z,98217.36
2022-09-15T21:01:56.109Z,98221.30
2022-09-15T21:04:58.324Z,98231.90
2022-09-15T21:08:00.756Z,98233.31
2022-09-15T21:11:05.171Z,98236.08
2022-09-15T21:14:07.625Z,98239.37
2022-09-15T21:17:10.095Z,98244.48
2022-09-15T21:20:11.853Z,98254.13
2022-09-15T21:23:13.835Z,98261.80
2022-09-15T21:26:26.894Z,98266.45
2022-09-15T21:29:29.264Z,98265.23
2022-09-15T21:32:32.742Z,98270.00
2022-09-15T21:35:34.555Z,98272.64
2022-09-15T21:38:37.842Z,98271.42
2022-09-15T21:41:39.564Z,98267.04
2022-09-15T21:44:41.309Z,98269.40
2022-09-15T21:47:43.015Z,98270.10
2022-09-15T21:50:54.168Z,98266.98
2022-09-15T21:53:57.815Z,98274.02
2022-09-15T21:56:59.833Z,98279.75
2022-09-15T22:00:01.822Z,98285.84
2022-09-15T22:03:04.218Z,98291.42
2022-09-15T22:06:06.219Z,98292.98
2022-09-15T22:09:11.271Z,98296.14
2022-09-15T22:12:13.305Z,98302.05
2022-09-15T22:15:15.848Z,98298.53
2022-09-15T22:18:18.381Z,98299.29
2022-09-15T22:21:23.031Z,98299.89
2022-09-15T22:24:24.836Z,98304.52
2022-09-15T22:27:26.668Z,98313.31
2022-09-15T22:30:28.519Z,98315.19
2022-09-15T22:33:30.796Z,98316.63
2022-09-15T22:36:33.230Z,98321.27
2022-09-15T22:39:57.331Z,98322.09
2022-09-15T22:42:57.031Z,98325.07
2022-09-15T22:45:58.853Z,98324.73
2022-09-15T22:49:00.703Z,98328.80
2022-09-15T22:52:02.666Z,98328.97
2022-09-15T22:55:04.859Z,98334.14
2022-09-15T22:58:07.207Z,98336.08
2022-09-15T23:01:12.592Z,98343.42
2022-09-15T23:04:14.538Z,98345.54
2022-09-15T23:07:36.326Z,98347.04
2022-09-15T23:10:53.783Z,98350.41
2022-09-15T23:13:56.138Z,98349.22
2022-09-15T23:16:57.877Z,98349.85
2022-09-15T23:19:59.547Z,98348.60
2022-09-15T23:23:01.417Z,98349.83
2022-09-15T23:26:04.893Z,98348.34
2022-09-15T23:29:06.646Z,98346.24
2022-09-15T23:32:08.402Z,98346.52
2022-09-15T23:35:10.280Z,98352.86
2022-09-15T23:38:12.100Z,98353.84
2022-09-15T23:41:14.635Z,98352.90
2022-09-15T23:44:16.347Z,98349.81
2022-09-15T23:47:18.028Z,98349.75
2022-09-15T23:50:19.774Z,98349.39
2022-09-15T23:53:21.625Z,98345.30
2022-09-15T23:56:23.562Z,98344.12
2022-09-15T23:59:25.309Z,98348.67
